createdAt,value
2023-02-09T00:00:39.096Z,62.00
2023-02-09T00:03:08.106Z,62.10
2023-02-09T00:05:38.347Z,62.00
2023-02-09T00:08:07.358Z,62.10
2023-02-09T00:10:39.731Z,63.20
2023-02-09T00:13:22.885Z,62.50
2023-02-09T00:15:53.238Z,62.20
2023-02-09T00:18:26.970Z,62.10
2023-02-09T00:21:00.392Z,62.30
2023-02-09T00:23:30.871Z,62.80
2023-02-09T00:26:02.910Z,63.20
2023-02-09T00:28:35.104Z,62.50
2023-02-09T00:31:08.710Z,62.50
2023-02-09T00:33:38.309Z,62.50
2023-02-09T00:36:09.187Z,62.60
2023-02-09T00:38:38.657Z,62.60
2023-02-09T00:41:09.220Z,62.50
2023-02-09T00:43:38.287Z,62.20
2023-02-09T00:46:07.789Z,62.00
2023-02-09T00:48:38.097Z,62.10
2023-02-09T00:51:07.587Z,62.00
2023-02-09T00:53:38.069Z,61.80
2023-02-09T00:56:09.971Z,61.90
2023-02-09T00:58:40.945Z,62.00
2023-02-09T01:01:13.421Z,61.80
2023-02-09T01:03:45.529Z,62.20
2023-02-09T01:06:14.499Z,62.10
2023-02-09T01:08:43.565Z,62.10
2023-02-09T01:11:17.350Z,62.20
2023-02-09T01:13:47.458Z,61.90
2023-02-09T01:16:18.757Z,61.70
2023-02-09T01:18:47.971Z,61.50
2023-02-09T01:21:20.539Z,62.10
2023-02-09T01:23:50.860Z,61.20
2023-02-09T01:26:21.461Z,61.10
2023-02-09T01:28:51.727Z,61.00
2023-02-09T01:31:25.741Z,61.10
2023-02-09T01:33:57.216Z,61.40
2023-02-09T01:36:33.471Z,61.40
2023-02-09T01:39:04.182Z,61.30
2023-02-09T01:41:35.765Z,61.70
2023-02-09T01:44:47.351Z,62.10
2023-02-09T01:47:17.851Z,62.10
2023-02-09T01:49:50.100Z,62.10
2023-02-09T01:52:22.636Z,62.20
2023-02-09T01:54:56.499Z,62.40
2023-02-09T01:57:32.667Z,62.60
2023-02-09T02:00:07.894Z,62.50
2023-02-09T02:02:45.178Z,63.00
2023-02-09T02:05:17.779Z,62.10
2023-02-09T02:07:53.159Z,61.80
2023-02-09T02:10:22.797Z,62.10
2023-02-09T02:12:56.243Z,62.20
2023-02-09T02:15:30.806Z,62.50
2023-02-09T02:18:18.507Z,62.90
2023-02-09T02:21:45.458Z,63.90
2023-02-09T02:24:40.665Z,63.80
2023-02-09T02:27:21.247Z,63.30
2023-02-09T02:30:30.520Z,63.10
2023-02-09T02:33:18.649Z,64.10
2023-02-09T02:35:55.518Z,63.50
2023-02-09T02:38:36.029Z,63.60
2023-02-09T02:41:17.111Z,64.00
2023-02-09T02:43:56.923Z,63.90
2023-02-09T02:46:33.554Z,64.50
2023-02-09T02:49:08.739Z,63.40
2023-02-09T02:51:40.739Z,63.60
2023-02-09T02:54:14.665Z,63.30
2023-02-09T02:56:47.145Z,63.40
2023-02-09T02:59:20.839Z,63.70
2023-02-09T03:01:56.650Z,63.60
2023-02-09T03:04:31.932Z,63.80
2023-02-09T03:07:01.290Z,63.80
2023-02-09T03:09:32.778Z,63.80
2023-02-09T03:12:15.630Z,63.70
2023-02-09T03:15:04.852Z,64.30
2023-02-09T03:17:48.304Z,64.10
2023-02-09T03:20:30.384Z,63.60
2023-02-09T03:23:05.948Z,64.10
2023-02-09T03:25:39.018Z,63.50
2023-02-09T03:28:15.560Z,63.70
2023-02-09T03:30:49.938Z,63.90
2023-02-09T03:33:21.627Z,64.10
2023-02-09T03:35:56.405Z,64.20
2023-02-09T03:38:26.327Z,64.10
2023-02-09T03:40:55.691Z,63.90
2023-02-09T03:43:47.293Z,64.70
2023-02-09T03:46:16.280Z,64.00
2023-02-09T03:48:45.258Z,63.90
2023-02-09T03:51:15.539Z,63.80
2023-02-09T03:53:44.530Z,63.50
2023-02-09T03:56:16.307Z,63.40
2023-02-09T03:58:45.343Z,64.20
2023-02-09T04:01:14.333Z,63.60
2023-02-09T04:03:43.456Z,64.00
2023-02-09T04:06:12.427Z,64.10
2023-02-09T04:08:43.293Z,65.00
2023-02-09T04:11:12.262Z,64.50
2023-02-09T04:13:41.301Z,64.40
2023-02-09T04:16:10.462Z,64.40
2023-02-09T04:18:42.481Z,64.30
2023-02-09T04:21:11.597Z,64.00
2023-02-09T04:23:45.093Z,64.00
2023-02-09T04:26:14.725Z,64.10
2023-02-09T04:28:43.835Z,64.10
2023-02-09T04:31:13.268Z,64.30
2023-02-09T04:33:42.407Z,64.30
2023-02-09T04:36:14.050Z,63.90
2023-02-09T04:38:44.450Z,63.90
2023-02-09T04:41:13.495Z,64.10
2023-02-09T04:43:42.541Z,64.70
2023-02-09T04:46:14.433Z,64.00
2023-02-09T04:48:44.034Z,64.30
2023-02-09T04:51:13.720Z,64.10
2023-02-09T04:53:44.471Z,64.10
2023-02-09T04:56:16.465Z,63.90
2023-02-09T04:59:03.420Z,63.90
2023-02-09T05:01:32.964Z,63.90
2023-02-09T05:04:04.417Z,63.90
2023-02-09T05:06:33.398Z,64.00
2023-02-09T05:09:03.742Z,64.80
2023-02-09T05:11:32.745Z,64.20
2023-02-09T05:14:01.729Z,64.30
2023-02-09T05:16:33.746Z,64.70
2023-02-09T05:19:02.815Z,65.00
2023-02-09T05:21:34.964Z,64.90
2023-02-09T05:24:08.345Z,64.90
2023-02-09T05:26:37.621Z,65.00
2023-02-09T05:29:06.678Z,64.80
2023-02-09T05:31:35.791Z,65.20
2023-02-09T05:34:04.857Z,64.60
2023-02-09T05:36:33.855Z,64.80
2023-02-09T05:39:02.944Z,64.90
2023-02-09T05:41:50.996Z,65.00
2023-02-09T05:44:23.041Z,65.40
2023-02-09T05:46:51.993Z,65.30
2023-02-09T05:49:21.004Z,65.40
2023-02-09T05:51:50.002Z,65.60
2023-02-09T05:54:19.206Z,65.70
2023-02-09T05:56:49.989Z,65.80
2023-02-09T05:59:19.362Z,65.90
2023-02-09T06:01:48.411Z,65.70
2023-02-09T06:04:17.573Z,65.80
2023-02-09T06:06:48.763Z,65.80
2023-02-09T06:09:17.928Z,65.80
2023-02-09T06:11:47.111Z,65.70
2023-02-09T06:14:17.828Z,65.60
2023-02-09T06:16:47.195Z,65.80
2023-02-09T06:19:18.007Z,65.90
2023-02-09T06:21:47.655Z,66.00
2023-02-09T06:24:18.914Z,66.10
2023-02-09T06:26:48.017Z,66.00
2023-02-09T06:29:18.366Z,65.90
2023-02-09T06:31:47.462Z,66.00
2023-02-09T06:34:16.518Z,66.10
2023-02-09T06:36:47.739Z,66.10
2023-02-09T06:39:16.729Z,66.20
2023-02-09T06:41:45.628Z,66.00
2023-02-09T06:44:14.689Z,65.60
2023-02-09T06:46:45.010Z,65.40
2023-02-09T06:49:14.042Z,65.70
2023-02-09T06:51:43.253Z,66.00
2023-02-09T06:54:12.380Z,66.00
2023-02-09T06:56:41.366Z,66.10
2023-02-09T06:59:10.360Z,67.00
2023-02-09T07:01:39.425Z,66.40
2023-02-09T07:04:09.817Z,67.10
2023-02-09T07:06:38.809Z,66.20
2023-02-09T07:09:07.745Z,65.70
2023-02-09T07:11:37.077Z,65.40
2023-02-09T07:14:06.191Z,65.30
2023-02-09T07:16:35.157Z,65.40
2023-02-09T07:19:04.202Z,65.40
2023-02-09T07:21:34.526Z,65.40
2023-02-09T07:24:03.467Z,65.70
2023-02-09T07:26:32.474Z,65.60
2023-02-09T07:29:02.519Z,65.30
2023-02-09T07:31:31.750Z,65.10
2023-02-09T07:34:00.847Z,65.20
2023-02-09T07:36:29.946Z,65.40
2023-02-09T07:39:00.622Z,65.70
2023-02-09T07:41:29.829Z,65.80
2023-02-09T07:44:02.026Z,65.80
2023-02-09T07:46:31.175Z,66.30
2023-02-09T07:49:03.225Z,65.40
2023-02-09T07:51:34.069Z,65.40
2023-02-09T07:54:07.244Z,65.40
2023-02-09T07:56:39.458Z,65.70
2023-02-09T07:59:09.066Z,65.70
2023-02-09T08:01:38.348Z,65.90
2023-02-09T08:04:07.519Z,66.20
2023-02-09T08:06:43.197Z,66.40
2023-02-09T08:09:17.005Z,66.80
2023-02-09T08:11:50.096Z,66.80
2023-02-09T08:14:23.152Z,66.90
2023-02-09T08:17:15.985Z,67.80
2023-02-09T08:19:51.569Z,67.20
2023-02-09T08:22:25.500Z,67.80
2023-02-09T08:24:56.200Z,66.80
2023-02-09T08:27:25.622Z,66.60
2023-02-09T08:29:54.912Z,66.60
2023-02-09T08:32:23.961Z,67.10
2023-02-09T08:34:53.090Z,67.40
2023-02-09T08:37:22.123Z,67.70
2023-02-09T08:39:51.118Z,68.00
2023-02-09T08:42:21.496Z,68.20
2023-02-09T08:44:53.510Z,68.40
2023-02-09T08:47:22.869Z,69.00
2023-02-09T08:49:52.068Z,68.30
2023-02-09T08:52:21.204Z,68.40
2023-02-09T08:54:50.203Z,68.50
2023-02-09T08:57:19.205Z,68.60
2023-02-09T08:59:49.559Z,68.80
2023-02-09T09:02:18.568Z,68.90
2023-02-09T09:04:48.209Z,68.80
2023-02-09T09:07:26.556Z,68.80
2023-02-09T09:09:55.637Z,69.60
2023-02-09T09:12:24.613Z,68.80
2023-02-09T09:14:54.907Z,69.00
2023-02-09T09:17:24.002Z,69.00
2023-02-09T09:19:55.907Z,68.80
2023-02-09T09:22:28.158Z,68.80
2023-02-09T09:24:57.142Z,69.00
2023-02-09T09:27:27.109Z,69.00
2023-02-09T09:29:57.526Z,68.80
2023-02-09T09:32:26.752Z,68.90
2023-02-09T09:34:57.505Z,68.70
2023-02-09T09:37:29.513Z,68.80
2023-02-09T09:39:59.414Z,68.80
2023-02-09T09:42:36.216Z,68.70
2023-02-09T09:45:09.535Z,69.60
2023-02-09T09:47:43.763Z,68.80
2023-02-09T09:50:20.428Z,68.80
2023-02-09T09:52:54.153Z,68.80
2023-02-09T09:55:29.748Z,68.60
2023-02-09T09:58:03.008Z,68.80
2023-02-09T10:00:38.346Z,69.50
2023-02-09T10:03:16.558Z,68.70
2023-02-09T10:05:47.736Z,69.20
2023-02-09T10:08:25.303Z,68.60
2023-02-09T10:11:01.133Z,68.80
2023-02-09T10:13:36.479Z,68.70
2023-02-09T10:16:17.920Z,68.80
2023-02-09T10:18:50.997Z,68.90
2023-02-09T10:21:20.867Z,69.00
2023-02-09T10:23:52.371Z,69.00
2023-02-09T10:26:26.449Z,68.60
2023-02-09T10:29:01.055Z,68.30
2023-02-09T10:31:36.303Z,68.50
2023-02-09T10:34:15.081Z,68.70
2023-02-09T10:36:52.141Z,68.60
2023-02-09T10:39:24.072Z,68.80
2023-02-09T10:41:55.263Z,68.90
2023-02-09T10:44:27.597Z,68.90
2023-02-09T10:47:12.675Z,69.40
2023-02-09T10:49:41.633Z,68.20
2023-02-09T10:52:19.358Z,68.40
2023-02-09T10:54:52.238Z,68.40
2023-02-09T10:57:26.172Z,68.30
2023-02-09T10:59:58.789Z,68.90
2023-02-09T11:02:51.454Z,67.80
2023-02-09T11:05:34.352Z,67.20
2023-02-09T11:08:17.088Z,67.40
2023-02-09T11:11:00.312Z,67.30
2023-02-09T11:13:35.024Z,67.20
2023-02-09T11:16:47.411Z,67.00
2023-02-09T11:19:45.607Z,66.60
2023-02-09T11:22:20.632Z,66.50
2023-02-09T11:25:06.550Z,66.00
2023-02-09T11:27:59.417Z,64.70
2023-02-09T11:30:53.315Z,64.30
2023-02-09T11:33:32.459Z,64.80
2023-02-09T11:36:17.502Z,64.20
2023-02-09T11:38:53.227Z,63.30
2023-02-09T11:41:47.817Z,65.00
2023-02-09T11:44:30.792Z,63.20
2023-02-09T11:47:06.847Z,62.70
2023-02-09T11:49:52.176Z,63.70
2023-02-09T11:52:30.032Z,62.30
2023-02-09T11:55:04.351Z,62.10
2023-02-09T11:57:41.594Z,60.90
2023-02-09T12:00:21.118Z,61.90
2023-02-09T12:02:59.804Z,62.10
2023-02-09T12:05:29.180Z,61.20
2023-02-09T12:08:24.062Z,61.40
2023-02-09T12:11:10.524Z,61.20
2023-02-09T12:14:00.067Z,62.00
2023-02-09T12:16:34.987Z,61.60
2023-02-09T12:19:05.918Z,61.60
2023-02-09T12:21:38.427Z,61.00
2023-02-09T12:24:35.369Z,60.40
2023-02-09T12:27:11.858Z,60.40
2023-02-09T12:29:44.218Z,61.90
2023-02-09T12:32:30.719Z,61.90
2023-02-09T12:35:27.381Z,59.90
2023-02-09T12:38:17.878Z,59.40
2023-02-09T12:41:04.570Z,59.70
2023-02-09T12:43:38.996Z,59.30
2023-02-09T12:46:22.718Z,60.00
2023-02-09T12:49:15.799Z,59.10
2023-02-09T12:51:55.862Z,59.60
2023-02-09T12:54:36.185Z,58.90
2023-02-09T12:57:53.506Z,59.40
2023-02-09T13:00:54.908Z,57.80
2023-02-09T13:03:25.993Z,57.20
2023-02-09T13:06:01.304Z,58.10
2023-02-09T13:08:40.162Z,57.60
2023-02-09T13:11:30.617Z,58.50
2023-02-09T13:14:03.347Z,58.10
2023-02-09T13:17:04.813Z,58.30
2023-02-09T13:20:05.085Z,58.00
2023-02-09T13:22:56.439Z,57.40
2023-02-09T13:25:33.419Z,57.20
2023-02-09T13:28:14.050Z,57.60
2023-02-09T13:30:43.532Z,58.10
2023-02-09T13:33:32.715Z,58.20
2023-02-09T13:36:24.983Z,57.60
2023-02-09T13:38:54.956Z,57.70
2023-02-09T13:41:30.995Z,57.70
2023-02-09T13:44:00.129Z,57.40
2023-02-09T13:46:35.224Z,57.60
2023-02-09T13:49:19.825Z,57.80
2023-02-09T13:51:49.334Z,57.70
2023-02-09T13:54:20.775Z,57.90
2023-02-09T13:56:50.117Z,57.90
2023-02-09T13:59:19.147Z,57.70
2023-02-09T14:01:48.479Z,57.80
2023-02-09T14:04:23.863Z,57.90
2023-02-09T14:06:58.338Z,57.80
2023-02-09T14:09:34.332Z,58.10
2023-02-09T14:12:09.422Z,57.90
2023-02-09T14:14:58.711Z,58.70
2023-02-09T14:17:30.593Z,58.70
2023-02-09T14:20:01.690Z,58.70
2023-02-09T14:22:34.497Z,58.40
2023-02-09T14:25:19.390Z,58.80
2023-02-09T14:27:49.744Z,58.70
2023-02-09T14:30:22.410Z,59.00
2023-02-09T14:32:54.845Z,59.20
2023-02-09T14:35:29.534Z,59.40
2023-02-09T14:38:01.030Z,59.60
2023-02-09T14:40:34.242Z,59.70
2023-02-09T14:43:22.104Z,59.50
2023-02-09T14:46:01.489Z,59.40
2023-02-09T14:48:32.255Z,59.60
2023-02-09T14:51:12.178Z,59.60
2023-02-09T14:53:43.932Z,59.40
2023-02-09T14:56:23.987Z,59.40
2023-02-09T14:58:53.021Z,59.40
2023-02-09T15:01:22.109Z,59.30
2023-02-09T15:03:51.179Z,59.70
2023-02-09T15:06:21.579Z,60.60
2023-02-09T15:08:50.601Z,59.90
2023-02-09T15:11:42.621Z,60.00
2023-02-09T15:14:12.985Z,60.10
2023-02-09T15:16:42.055Z,60.20
2023-02-09T15:19:13.814Z,60.30
2023-02-09T15:21:44.180Z,60.40
2023-02-09T15:24:13.251Z,60.00
2023-02-09T15:26:42.464Z,59.90
2023-02-09T15:29:20.264Z,60.00
2023-02-09T15:31:49.200Z,60.00
2023-02-09T15:34:18.200Z,60.10
2023-02-09T15:36:51.504Z,60.00
2023-02-09T15:39:23.694Z,60.10
2023-02-09T15:42:10.058Z,60.40
2023-02-09T15:44:56.480Z,60.30
2023-02-09T15:47:42.678Z,60.10
2023-02-09T15:50:11.729Z,60.00
2023-02-09T15:52:44.441Z,60.30
2023-02-09T15:55:20.539Z,60.30
2023-02-09T15:57:52.346Z,60.50
2023-02-09T16:00:24.765Z,60.70
2023-02-09T16:02:54.721Z,60.70
2023-02-09T16:05:26.755Z,60.70
2023-02-09T16:07:57.648Z,60.50
2023-02-09T16:10:29.879Z,60.30
2023-02-09T16:12:59.576Z,60.40
2023-02-09T16:15:28.783Z,60.50
2023-02-09T16:17:57.756Z,60.50
2023-02-09T16:20:26.750Z,60.50
2023-02-09T16:23:11.837Z,60.40
2023-02-09T16:25:49.442Z,60.60
2023-02-09T16:28:19.832Z,60.70
2023-02-09T16:30:52.537Z,60.70
2023-02-09T16:33:22.612Z,60.80
2023-02-09T16:35:55.805Z,60.70
2023-02-09T16:38:27.651Z,60.60
2023-02-09T16:40:57.470Z,60.50
2023-02-09T16:43:26.477Z,60.50
2023-02-09T16:46:03.318Z,60.40
2023-02-09T16:48:34.988Z,60.80
2023-02-09T16:51:07.837Z,61.60
2023-02-09T16:53:44.991Z,61.00
2023-02-09T16:56:17.064Z,61.50
2023-02-09T16:58:47.361Z,61.30
2023-02-09T17:01:20.106Z,61.00
2023-02-09T17:03:53.624Z,60.60
2023-02-09T17:06:25.632Z,60.40
2023-02-09T17:08:56.719Z,60.50
2023-02-09T17:11:28.902Z,60.80
2023-02-09T17:14:00.922Z,60.70
2023-02-09T17:16:34.864Z,60.80
2023-02-09T17:19:08.440Z,61.10
2023-02-09T17:21:41.200Z,61.10
2023-02-09T17:24:17.660Z,60.80
2023-02-09T17:26:48.970Z,60.90
2023-02-09T17:29:20.209Z,61.10
2023-02-09T17:31:53.688Z,61.30
2023-02-09T17:34:27.128Z,61.50
2023-02-09T17:36:56.570Z,61.60
2023-02-09T17:39:26.896Z,61.30
2023-02-09T17:41:55.915Z,61.00
2023-02-09T17:44:43.698Z,61.50
2023-02-09T17:47:18.328Z,60.90
2023-02-09T17:49:47.935Z,60.90
2023-02-09T17:52:18.584Z,61.10
2023-02-09T17:54:50.926Z,61.30
2023-02-09T17:57:21.070Z,61.60
2023-02-09T17:59:50.107Z,61.40
2023-02-09T18:02:20.659Z,61.10
2023-02-09T18:04:49.637Z,61.30
2023-02-09T18:07:20.569Z,61.30
2023-02-09T18:09:54.421Z,61.10
2023-02-09T18:12:27.107Z,61.10
2023-02-09T18:14:56.203Z,61.20
2023-02-09T18:17:25.228Z,61.00
2023-02-09T18:19:54.186Z,61.40
2023-02-09T18:22:27.527Z,61.60
2023-02-09T18:25:00.615Z,61.80
2023-02-09T18:27:29.679Z,62.80
2023-02-09T18:29:58.827Z,62.00
2023-02-09T18:32:27.895Z,61.70
2023-02-09T18:34:56.879Z,62.30
2023-02-09T18:37:25.932Z,61.40
2023-02-09T18:39:54.917Z,61.30
2023-02-09T18:42:25.449Z,61.20
2023-02-09T18:44:57.465Z,61.30
2023-02-09T18:47:27.132Z,61.30
2023-02-09T18:49:56.163Z,61.50
2023-02-09T18:52:26.983Z,61.50
2023-02-09T18:54:56.089Z,62.30
2023-02-09T18:57:26.445Z,61.40
2023-02-09T18:59:55.372Z,61.50
2023-02-09T19:02:24.684Z,61.50
2023-02-09T19:04:53.900Z,61.50
2023-02-09T19:07:23.101Z,61.60
2023-02-09T19:09:52.267Z,61.80
2023-02-09T19:12:28.195Z,62.00
2023-02-09T19:14:57.588Z,62.20
2023-02-09T19:17:26.752Z,63.10
2023-02-09T19:19:59.160Z,62.50
2023-02-09T19:22:28.164Z,62.90
2023-02-09T19:24:58.080Z,62.70
2023-02-09T19:27:29.724Z,62.90
2023-02-09T19:29:59.955Z,63.10
2023-02-09T19:32:30.280Z,63.90
2023-02-09T19:34:59.340Z,63.30
2023-02-09T19:37:28.362Z,63.30
2023-02-09T19:40:04.524Z,63.50
2023-02-09T19:42:35.320Z,63.50
2023-02-09T19:45:04.979Z,63.80
2023-02-09T19:47:33.935Z,63.70
2023-02-09T19:50:02.890Z,63.60
2023-02-09T19:52:31.879Z,63.50
2023-02-09T19:55:00.866Z,63.30
2023-02-09T19:57:29.828Z,63.20
2023-02-09T20:00:00.170Z,63.00
2023-02-09T20:02:29.216Z,62.90
2023-02-09T20:04:58.305Z,63.60
2023-02-09T20:07:27.457Z,62.80
2023-02-09T20:09:58.159Z,62.70
2023-02-09T20:12:27.230Z,62.70
2023-02-09T20:14:56.567Z,62.80
2023-02-09T20:17:27.947Z,63.00
2023-02-09T20:19:57.107Z,63.10
2023-02-09T20:22:26.081Z,62.90
2023-02-09T20:24:55.073Z,63.10
2023-02-09T20:27:24.058Z,63.30
2023-02-09T20:30:01.284Z,63.60
2023-02-09T20:32:35.394Z,63.70
2023-02-09T20:35:04.931Z,64.00
2023-02-09T20:37:33.946Z,64.10
2023-02-09T20:40:03.029Z,63.90
2023-02-09T20:42:49.696Z,64.00
2023-02-09T20:45:39.009Z,64.20
2023-02-09T20:48:09.919Z,64.30
2023-02-09T20:50:39.065Z,64.40
2023-02-09T20:53:08.636Z,65.20
2023-02-09T20:55:38.752Z,64.60
2023-02-09T20:58:09.574Z,64.80
2023-02-09T21:00:39.407Z,64.80
2023-02-09T21:03:10.349Z,64.80
2023-02-09T21:05:39.467Z,64.90
2023-02-09T21:08:09.442Z,64.80
2023-02-09T21:10:38.819Z,64.80
2023-02-09T21:13:10.415Z,64.70
2023-02-09T21:15:42.904Z,65.20
2023-02-09T21:18:13.411Z,64.40
2023-02-09T21:20:42.442Z,64.30
2023-02-09T21:23:11.768Z,64.20
2023-02-09T21:25:40.935Z,64.30
2023-02-09T21:28:10.330Z,64.30
2023-02-09T21:30:43.227Z,65.00
2023-02-09T21:33:13.734Z,64.50
2023-02-09T21:35:42.954Z,64.40
2023-02-09T21:38:12.347Z,64.50
2023-02-09T21:40:42.185Z,64.80
2023-02-09T21:43:11.356Z,65.70
2023-02-09T21:45:41.643Z,65.00
2023-02-09T21:48:11.094Z,65.20
2023-02-09T21:50:42.165Z,65.10
2023-02-09T21:53:11.728Z,65.40
2023-02-09T21:55:41.595Z,65.20
2023-02-09T21:58:10.926Z,65.10
2023-02-09T22:00:42.961Z,65.20
2023-02-09T22:03:14.792Z,65.20
2023-02-09T22:05:57.558Z,65.40
2023-02-09T22:08:27.478Z,65.80
2023-02-09T22:11:01.593Z,65.20
2023-02-09T22:13:31.723Z,65.40
2023-02-09T22:16:01.714Z,65.50
2023-02-09T22:18:30.784Z,65.50
2023-02-09T22:21:01.197Z,65.60
2023-02-09T22:23:30.228Z,65.80
2023-02-09T22:26:03.854Z,65.80
2023-02-09T22:28:36.763Z,66.00
2023-02-09T22:31:11.031Z,65.80
2023-02-09T22:33:40.355Z,65.80
2023-02-09T22:36:14.256Z,65.50
2023-02-09T22:38:44.655Z,65.80
2023-02-09T22:41:22.275Z,65.60
2023-02-09T22:43:52.489Z,65.50
2023-02-09T22:46:22.676Z,65.20
2023-02-09T22:48:52.853Z,65.00
2023-02-09T22:51:24.734Z,64.70
2023-02-09T22:53:53.739Z,64.60
2023-02-09T22:56:25.602Z,64.60
2023-02-09T22:59:00.080Z,64.70
2023-02-09T23:01:30.203Z,64.70
2023-02-09T23:03:59.599Z,64.70
2023-02-09T23:06:31.470Z,64.70
2023-02-09T23:09:03.129Z,64.70
2023-02-09T23:11:33.240Z,64.70
2023-02-09T23:14:10.745Z,64.90
2023-02-09T23:16:42.033Z,65.00
2023-02-09T23:19:14.460Z,65.20
2023-02-09T23:21:48.289Z,65.50
2023-02-09T23:24:21.608Z,65.60
2023-02-09T23:26:50.640Z,65.50
2023-02-09T23:29:20.367Z,66.20
2023-02-09T23:31:49.970Z,65.40
2023-02-09T23:34:22.508Z,65.10
2023-02-09T23:36:52.968Z,65.00
2023-02-09T23:39:25.686Z,65.00
2023-02-09T23:41:54.665Z,65.80
2023-02-09T23:44:23.798Z,65.60
2023-02-09T23:46:52.820Z,64.90
2023-02-09T23:49:22.716Z,65.10
2023-02-09T23:51:56.046Z,65.40
2023-02-09T23:54:25.016Z,65.60
2023-02-09T23:56:53.996Z,65.70
2023-02-09T23:59:22.975Z,65.80
